createdAt,value
2023-04-01T00:00:59.291Z,50.43
2023-04-01T00:01:59.295Z,50.49
2023-04-01T00:02:59.381Z,54.00
2023-04-01T00:03:59.347Z,51.56
2023-04-01T00:04:59.245Z,53.27
2023-04-01T00:05:59.257Z,55.22
2023-04-01T00:06:59.228Z,52.84
2023-04-01T00:07:59.237Z,54.95
2023-04-01T00:08:59.206Z,52.32
2023-04-01T00:09:59.172Z,53.27
2023-04-01T00:10:59.217Z,51.51
2023-04-01T00:11:59.211Z,51.27
2023-04-01T00:12:59.179Z,56.63
2023-04-01T00:13:59.134Z,52.77
2023-04-01T00:14:59.143Z,51.76
2023-04-01T00:16:00.346Z,52.02
2023-04-01T00:17:00.182Z,52.15
2023-04-01T00:17:59.169Z,52.83
2023-04-01T00:18:59.089Z,50.99
2023-04-01T00:19:59.061Z,49.31
2023-04-01T00:20:59.052Z,48.92
2023-04-01T00:21:59.091Z,48.75
2023-04-01T00:22:59.007Z,52.87
2023-04-01T00:24:00.046Z,51.15
2023-04-01T00:24:59.088Z,51.41
2023-04-01T00:25:58.984Z,50.05
2023-04-01T00:26:59.006Z,51.38
2023-04-01T00:27:59.051Z,54.62
2023-04-01T00:28:58.971Z,48.20
2023-04-01T00:29:58.943Z,47.75
2023-04-01T00:30:58.961Z,47.72
2023-04-01T00:31:59.243Z,47.83
2023-04-01T00:32:59.002Z,53.97
2023-04-01T00:33:58.927Z,51.21
2023-04-01T00:34:58.918Z,52.34
2023-04-01T00:35:58.888Z,54.20
2023-04-01T00:36:58.867Z,56.44
2023-04-01T00:37:58.893Z,51.55
2023-04-01T00:38:58.858Z,50.74
2023-04-01T00:39:58.878Z,53.07
2023-04-01T00:40:58.849Z,50.51
2023-04-01T00:41:58.818Z,49.17
2023-04-01T00:42:58.800Z,55.55
2023-04-01T00:43:58.818Z,55.20
2023-04-01T00:44:58.794Z,54.83
2023-04-01T00:45:58.747Z,54.19
2023-04-01T00:46:59.833Z,53.52
2023-04-01T00:47:58.768Z,52.13
2023-04-01T00:48:58.758Z,54.45
2023-04-01T00:49:58.764Z,51.77
2023-04-01T00:50:58.748Z,50.69
2023-04-01T00:51:58.698Z,52.83
2023-04-01T00:52:58.698Z,50.49
2023-04-01T00:53:58.703Z,54.33
2023-04-01T00:54:58.696Z,51.33
2023-04-01T00:55:58.685Z,56.06
2023-04-01T00:56:58.667Z,53.95
2023-04-01T00:57:58.652Z,53.03
2023-04-01T00:58:58.654Z,52.12
2023-04-01T00:59:58.609Z,53.42
2023-04-01T01:00:58.652Z,53.69
2023-04-01T01:01:58.655Z,54.36
2023-04-01T01:02:58.610Z,53.58
2023-04-01T01:03:58.594Z,51.32
2023-04-01T01:04:58.582Z,53.05
2023-04-01T01:05:58.554Z,51.77
2023-04-01T01:06:58.562Z,53.07
2023-04-01T01:07:58.558Z,55.47
2023-04-01T01:08:58.538Z,54.54
2023-04-01T01:09:58.525Z,50.08
2023-04-01T01:10:58.508Z,49.78
2023-04-01T01:11:58.493Z,57.78
2023-04-01T01:12:58.483Z,50.62
2023-04-01T01:13:58.486Z,49.31
2023-04-01T01:14:58.467Z,54.11
2023-04-01T01:15:58.437Z,54.58
2023-04-01T01:16:58.519Z,51.29
2023-04-01T01:17:58.465Z,52.07
2023-04-01T01:18:58.397Z,48.86
2023-04-01T01:19:58.406Z,48.44
2023-04-01T01:20:58.415Z,52.50
2023-04-01T01:21:58.364Z,48.05
2023-04-01T01:22:58.380Z,50.70
2023-04-01T01:23:58.381Z,53.55
2023-04-01T01:24:58.362Z,58.66
2023-04-01T01:25:58.319Z,51.67
2023-04-01T01:26:58.321Z,49.18
2023-04-01T01:27:58.342Z,51.26
2023-04-01T01:28:58.305Z,51.54
2023-04-01T01:29:58.279Z,50.60
2023-04-01T01:30:58.297Z,49.36
2023-04-01T01:31:58.280Z,52.95
2023-04-01T01:32:58.291Z,51.95
2023-04-01T01:33:58.227Z,59.18
2023-04-01T01:34:58.245Z,54.79
2023-04-01T01:35:58.257Z,50.42
2023-04-01T01:36:58.204Z,51.76
2023-04-01T01:37:58.242Z,55.12
2023-04-01T01:38:58.208Z,54.76
2023-04-01T01:39:58.155Z,53.12
2023-04-01T01:40:58.162Z,52.70
2023-04-01T01:41:58.242Z,50.14
2023-04-01T01:42:58.139Z,51.50
2023-04-01T01:43:58.154Z,53.15
2023-04-01T01:44:58.134Z,51.18
2023-04-01T01:45:58.127Z,54.40
2023-04-01T01:46:58.094Z,53.39
2023-04-01T01:47:58.183Z,51.60
2023-04-01T01:48:58.097Z,50.21
2023-04-01T01:49:58.065Z,52.97
2023-04-01T01:50:58.071Z,51.12
2023-04-01T01:51:58.040Z,50.77
2023-04-01T01:52:58.032Z,56.12
2023-04-01T01:53:58.051Z,50.67
2023-04-01T01:54:58.025Z,53.70
2023-04-01T01:55:57.993Z,55.86
2023-04-01T01:56:58.061Z,50.45
2023-04-01T01:57:58.001Z,51.22
2023-04-01T01:58:57.976Z,53.97
2023-04-01T01:59:57.939Z,52.61
2023-04-01T02:00:57.937Z,52.55
2023-04-01T02:01:58.081Z,52.14
2023-04-01T02:02:57.981Z,55.00
2023-04-01T02:03:57.904Z,55.26
2023-04-01T02:04:57.948Z,57.85
2023-04-01T02:05:57.916Z,53.28
2023-04-01T02:06:57.864Z,51.77
2023-04-01T02:07:57.881Z,52.47
2023-04-01T02:08:57.899Z,51.16
2023-04-01T02:09:57.826Z,51.97
2023-04-01T02:10:57.876Z,49.42
2023-04-01T02:11:57.836Z,51.10
2023-04-01T02:12:57.847Z,50.25
2023-04-01T02:13:57.800Z,51.71
2023-04-01T02:14:57.810Z,52.99
2023-04-01T02:15:57.801Z,51.07
2023-04-01T02:16:57.760Z,51.39
2023-04-01T02:17:57.889Z,50.40
2023-04-01T02:18:57.769Z,54.35
2023-04-01T02:19:57.719Z,53.23
2023-04-01T02:20:57.725Z,52.51
2023-04-01T02:21:57.751Z,50.06
2023-04-01T02:22:57.688Z,53.54
2023-04-01T02:23:57.718Z,52.32
2023-04-01T02:24:57.693Z,50.34
2023-04-01T02:25:57.651Z,49.29
2023-04-01T02:26:57.654Z,52.60
2023-04-01T02:27:57.694Z,49.90
2023-04-01T02:28:57.652Z,53.11
2023-04-01T02:29:57.628Z,55.79
2023-04-01T02:30:57.667Z,50.84
2023-04-01T02:31:57.646Z,51.36
2023-04-01T02:32:57.702Z,53.40
2023-04-01T02:33:57.580Z,48.41
2023-04-01T02:34:57.567Z,48.74
2023-04-01T02:35:57.585Z,51.86
2023-04-01T02:36:57.566Z,51.96
2023-04-01T02:37:57.541Z,49.88
2023-04-01T02:38:57.554Z,49.80
2023-04-01T02:39:57.514Z,50.66
2023-04-01T02:40:57.499Z,55.62
2023-04-01T02:41:57.516Z,55.94
2023-04-01T02:42:57.550Z,53.85
2023-04-01T02:43:57.452Z,58.18
2023-04-01T02:44:57.450Z,51.04
2023-04-01T02:45:58.481Z,49.45
2023-04-01T02:46:57.505Z,50.81
2023-04-01T02:47:58.518Z,52.89
2023-04-01T02:48:57.416Z,52.54
2023-04-01T02:49:57.395Z,56.38
2023-04-01T02:50:57.431Z,51.90
2023-04-01T02:51:57.415Z,48.83
2023-04-01T02:52:57.388Z,51.61
2023-04-01T02:53:57.366Z,53.40
2023-04-01T02:54:57.367Z,54.93
2023-04-01T02:55:57.349Z,51.78
2023-04-01T02:56:57.425Z,56.69
2023-04-01T02:57:57.343Z,52.57
2023-04-01T02:58:57.332Z,50.69
2023-04-01T02:59:57.327Z,50.30
2023-04-01T03:00:57.350Z,54.43
2023-04-01T03:01:57.331Z,50.25
2023-04-01T03:02:57.531Z,51.84
2023-04-01T03:03:57.255Z,49.76
2023-04-01T03:04:57.238Z,53.10
2023-04-01T03:05:57.268Z,52.70
2023-04-01T03:06:57.238Z,54.54
2023-04-01T03:07:57.221Z,54.21
2023-04-01T03:08:57.219Z,55.55
2023-04-01T03:09:57.216Z,51.83
2023-04-01T03:10:59.549Z,55.57
2023-04-01T03:11:57.190Z,50.73
2023-04-01T03:12:57.193Z,53.12
2023-04-01T03:13:57.145Z,51.70
2023-04-01T03:14:57.146Z,55.93
2023-04-01T03:15:58.167Z,58.99
2023-04-01T03:16:57.245Z,51.54
2023-04-01T03:17:57.181Z,51.95
2023-04-01T03:18:57.114Z,50.83
2023-04-01T03:19:57.075Z,53.23
2023-04-01T03:20:57.094Z,53.78
2023-04-01T03:21:57.078Z,54.35
2023-04-01T03:22:57.088Z,52.38
2023-04-01T03:23:57.040Z,51.32
2023-04-01T03:24:57.044Z,55.00
2023-04-01T03:25:57.036Z,54.28
2023-04-01T03:27:31.604Z,58.13
2023-04-01T03:27:57.058Z,55.53
2023-04-01T03:28:57.001Z,55.07
2023-04-01T03:29:57.063Z,58.18
2023-04-01T03:30:57.010Z,54.46
2023-04-01T03:31:56.965Z,53.86
2023-04-01T03:32:57.033Z,52.67
2023-04-01T03:33:56.934Z,53.33
2023-04-01T03:34:56.922Z,54.38
2023-04-01T03:35:56.930Z,59.42
2023-04-01T03:36:56.898Z,57.13
2023-04-01T03:37:56.888Z,49.57
2023-04-01T03:38:56.873Z,52.70
2023-04-01T03:39:57.891Z,54.18
2023-04-01T03:40:56.881Z,52.06
2023-04-01T03:41:56.840Z,54.81
2023-04-01T03:42:56.899Z,52.33
2023-04-01T03:43:56.826Z,54.09
2023-04-01T03:44:56.824Z,58.90
2023-04-01T03:45:56.845Z,55.30
2023-04-01T03:46:56.792Z,57.68
2023-04-01T03:47:56.850Z,54.59
2023-04-01T03:48:56.792Z,51.21
2023-04-01T03:49:56.797Z,52.85
2023-04-01T03:50:56.750Z,53.82
2023-04-01T03:51:56.731Z,51.88
2023-04-01T03:52:56.734Z,54.43
2023-04-01T03:53:56.729Z,51.50
2023-04-01T03:54:56.708Z,52.93
2023-04-01T03:55:56.711Z,50.74
2023-04-01T03:56:56.709Z,54.24
2023-04-01T03:57:56.671Z,54.28
2023-04-01T03:58:56.718Z,56.69
2023-04-01T03:59:56.665Z,53.58
2023-04-01T04:00:56.656Z,52.90
2023-04-01T04:01:56.659Z,54.13
2023-04-01T04:02:56.658Z,56.12
2023-04-01T04:03:56.711Z,54.58
2023-04-01T04:04:56.603Z,55.01
2023-04-01T04:05:56.591Z,53.15
2023-04-01T04:06:56.583Z,56.14
2023-04-01T04:07:56.587Z,52.65
2023-04-01T04:08:56.593Z,51.40
2023-04-01T04:09:56.557Z,53.64
2023-04-01T04:10:56.554Z,56.50
2023-04-01T04:11:56.532Z,58.42
2023-04-01T04:12:56.513Z,56.33
2023-04-01T04:13:57.993Z,53.98
2023-04-01T04:14:57.505Z,54.12
2023-04-01T04:15:56.494Z,54.10
2023-04-01T04:16:56.498Z,55.19
2023-04-01T04:17:56.495Z,58.59
2023-04-01T04:18:56.442Z,54.85
2023-04-01T04:19:57.466Z,57.08
2023-04-01T04:20:56.418Z,54.95
2023-04-01T04:21:56.422Z,54.40
2023-04-01T04:22:56.424Z,56.03
2023-04-01T04:23:56.408Z,56.87
2023-04-01T04:24:56.409Z,57.17
2023-04-01T04:25:56.371Z,53.57
2023-04-01T04:26:56.369Z,55.12
2023-04-01T04:27:57.354Z,58.66
2023-04-01T04:28:56.376Z,54.47
2023-04-01T04:29:56.360Z,55.73
2023-04-01T04:30:56.321Z,55.64
2023-04-01T04:31:56.331Z,55.50
2023-04-01T04:32:56.381Z,57.39
2023-04-01T04:33:56.288Z,54.22
2023-04-01T04:34:56.315Z,56.91
2023-04-01T04:35:56.324Z,60.30
2023-04-01T04:36:56.321Z,54.09
2023-04-01T04:37:56.261Z,58.46
2023-04-01T04:38:56.242Z,57.06
2023-04-01T04:39:56.244Z,58.47
2023-04-01T04:40:56.224Z,57.69
2023-04-01T04:41:56.199Z,56.71
2023-04-01T04:42:56.230Z,57.08
2023-04-01T04:43:56.175Z,59.47
2023-04-01T04:44:56.168Z,59.23
2023-04-01T04:45:56.181Z,58.42
2023-04-01T04:46:58.232Z,56.21
2023-04-01T04:47:56.185Z,56.12
2023-04-01T04:48:56.112Z,56.25
2023-04-01T04:49:56.115Z,59.01
2023-04-01T04:50:56.106Z,60.05
2023-04-01T04:51:56.082Z,55.18
2023-04-01T04:52:56.106Z,55.76
2023-04-01T04:53:56.081Z,52.20
2023-04-01T04:54:56.043Z,53.09
2023-04-01T04:55:56.068Z,55.89
2023-04-01T04:56:56.124Z,54.30
2023-04-01T04:57:56.038Z,52.21
2023-04-01T04:58:56.005Z,54.98
2023-04-01T04:59:55.994Z,59.20
2023-04-01T05:00:56.030Z,55.75
2023-04-01T05:01:55.981Z,54.62
2023-04-01T05:02:56.074Z,57.43
2023-04-01T05:03:55.962Z,56.15
2023-04-01T05:04:55.951Z,53.12
2023-04-01T05:05:55.951Z,54.17
2023-04-01T05:06:55.941Z,52.52
2023-04-01T05:07:55.950Z,57.33
2023-04-01T05:08:55.900Z,57.53
2023-04-01T05:09:55.917Z,52.30
2023-04-01T05:10:55.895Z,53.67
2023-04-01T05:11:55.873Z,58.36
2023-04-01T05:12:55.866Z,57.52
2023-04-01T05:13:55.856Z,56.90
2023-04-01T05:14:55.847Z,54.40
2023-04-01T05:15:55.826Z,56.06
2023-04-01T05:16:55.835Z,57.01
2023-04-01T05:17:55.891Z,54.06
2023-04-01T05:18:55.801Z,58.24
2023-04-01T05:19:55.786Z,57.31
2023-04-01T05:20:55.770Z,56.67
2023-04-01T05:21:55.812Z,55.77
2023-04-01T05:22:55.771Z,55.05
2023-04-01T05:23:55.735Z,56.36
2023-04-01T05:24:55.732Z,54.42
2023-04-01T05:25:55.714Z,57.86
2023-04-01T05:26:56.978Z,57.85
2023-04-01T05:27:56.695Z,58.99
2023-04-01T05:28:55.708Z,55.02
2023-04-01T05:29:55.679Z,58.00
2023-04-01T05:30:55.725Z,56.89
2023-04-01T05:31:55.683Z,57.56
2023-04-01T05:32:55.672Z,58.66
2023-04-01T05:33:55.638Z,56.87
2023-04-01T05:34:55.621Z,57.82
2023-04-01T05:35:55.672Z,54.23
2023-04-01T05:36:55.604Z,55.60
2023-04-01T05:37:55.614Z,58.14
2023-04-01T05:38:55.567Z,58.09
2023-04-01T05:39:55.559Z,57.32
2023-04-01T05:40:55.560Z,58.19
2023-04-01T05:41:55.551Z,58.63
2023-04-01T05:42:55.535Z,58.86
2023-04-01T05:43:55.514Z,58.29
2023-04-01T05:44:55.495Z,57.71
2023-04-01T05:45:55.581Z,59.44
2023-04-01T05:46:55.505Z,58.41
2023-04-01T05:47:55.557Z,59.75
2023-04-01T05:48:55.491Z,59.96
2023-04-01T05:49:55.455Z,55.51
2023-04-01T05:50:55.430Z,58.30
2023-04-01T05:51:55.467Z,58.38
2023-04-01T05:52:55.405Z,59.23
2023-04-01T05:53:55.403Z,58.30
2023-04-01T05:54:55.404Z,56.14
2023-04-01T05:55:55.379Z,55.57
2023-04-01T05:56:55.423Z,57.06
2023-04-01T05:57:55.368Z,54.93
2023-04-01T05:58:55.357Z,60.80
2023-04-01T05:59:55.343Z,57.85
2023-04-01T06:01:08.069Z,57.78
2023-04-01T06:01:58.377Z,58.17
2023-04-01T06:02:55.417Z,58.77
2023-04-01T06:03:55.513Z,57.65
2023-04-01T06:04:55.336Z,56.64
2023-04-01T06:05:55.272Z,56.36
2023-04-01T06:06:55.294Z,60.82
2023-04-01T06:07:55.251Z,56.17
2023-04-01T06:08:55.237Z,58.02
2023-04-01T06:09:55.245Z,55.67
2023-04-01T06:10:55.230Z,59.08
2023-04-01T06:11:55.229Z,58.08
2023-04-01T06:12:55.201Z,56.79
2023-04-01T06:13:55.195Z,59.16
2023-04-01T06:14:55.182Z,57.71
2023-04-01T06:15:55.200Z,56.40
2023-04-01T06:16:55.173Z,56.44
2023-04-01T06:17:55.206Z,58.79
2023-04-01T06:18:55.152Z,55.70
2023-04-01T06:19:55.128Z,56.63
2023-04-01T06:20:55.128Z,60.24
2023-04-01T06:21:55.106Z,55.89
2023-04-01T06:22:55.111Z,55.03
2023-04-01T06:23:55.081Z,58.18
2023-04-01T06:24:55.089Z,56.95
2023-04-01T06:25:55.099Z,58.48
2023-04-01T06:26:55.055Z,57.31
2023-04-01T06:27:55.059Z,55.89
2023-04-01T06:28:55.058Z,58.89
2023-04-01T06:29:55.021Z,60.67
2023-04-01T06:30:55.018Z,60.00
2023-04-01T06:31:55.026Z,60.45
2023-04-01T06:32:55.027Z,55.94
2023-04-01T06:33:55.004Z,59.27
2023-04-01T06:34:54.988Z,58.32
2023-04-01T06:35:55.020Z,59.11
2023-04-01T06:36:54.944Z,58.67
2023-04-01T06:37:54.977Z,58.11
2023-04-01T06:38:54.949Z,59.87
2023-04-01T06:39:54.921Z,58.59
2023-04-01T06:40:54.908Z,58.36
2023-04-01T06:41:54.897Z,59.06
2023-04-01T06:42:54.894Z,57.13
2023-04-01T06:43:54.882Z,59.41
2023-04-01T06:44:54.862Z,56.70
2023-04-01T06:45:54.884Z,61.02
2023-04-01T06:46:54.855Z,61.03
2023-04-01T06:47:54.887Z,60.27
2023-04-01T06:48:54.844Z,60.45
2023-04-01T06:49:54.843Z,61.05
2023-04-01T06:50:54.803Z,59.26
2023-04-01T06:51:54.815Z,60.32
2023-04-01T06:52:54.787Z,57.60
2023-04-01T06:53:55.774Z,57.18
2023-04-01T06:54:54.765Z,54.12
2023-04-01T06:55:54.745Z,56.29
2023-04-01T06:56:54.753Z,58.35
2023-04-01T06:57:55.751Z,59.01
2023-04-01T06:58:54.737Z,57.08
2023-04-01T06:59:54.729Z,55.87
2023-04-01T07:00:54.709Z,58.71
2023-04-01T07:01:54.692Z,61.47
2023-04-01T07:02:54.827Z,59.70
2023-04-01T07:03:54.717Z,60.38
2023-04-01T07:04:54.678Z,59.71
2023-04-01T07:05:54.660Z,61.16
2023-04-01T07:06:54.640Z,56.48
2023-04-01T07:07:54.626Z,61.66
2023-04-01T07:08:54.606Z,58.07
2023-04-01T07:09:54.603Z,57.33
2023-04-01T07:10:54.608Z,58.78
2023-04-01T07:11:54.583Z,59.25
2023-04-01T07:12:54.582Z,61.26
2023-04-01T07:13:54.548Z,61.60
2023-04-01T07:14:54.548Z,60.64
2023-04-01T07:15:56.016Z,60.76
2023-04-01T07:16:54.542Z,58.56
2023-04-01T07:17:54.583Z,57.77
2023-04-01T07:18:54.511Z,58.93
2023-04-01T07:19:54.485Z,59.32
2023-04-01T07:20:54.511Z,59.73
2023-04-01T07:21:54.495Z,59.99
2023-04-01T07:22:54.465Z,56.83
2023-04-01T07:23:54.438Z,57.04
2023-04-01T07:24:54.412Z,60.82
2023-04-01T07:25:55.612Z,62.14
2023-04-01T07:26:54.395Z,59.63
2023-04-01T07:27:54.418Z,60.24
2023-04-01T07:28:54.398Z,60.14
2023-04-01T07:29:54.387Z,59.83
2023-04-01T07:30:54.377Z,64.77
2023-04-01T07:31:54.352Z,58.10
2023-04-01T07:32:54.366Z,60.61
2023-04-01T07:33:54.330Z,61.37
2023-04-01T07:34:54.306Z,59.73
2023-04-01T07:35:54.315Z,59.36
2023-04-01T07:36:54.312Z,59.78
2023-04-01T07:37:54.281Z,61.82
2023-04-01T07:38:54.308Z,60.77
2023-04-01T07:39:54.266Z,58.51
2023-04-01T07:40:54.255Z,59.96
2023-04-01T07:41:54.258Z,61.08
2023-04-01T07:42:54.235Z,58.87
2023-04-01T07:43:54.216Z,61.26
2023-04-01T07:44:54.218Z,60.22
2023-04-01T07:45:54.197Z,59.12
2023-04-01T07:46:54.171Z,62.83
2023-04-01T07:47:54.214Z,62.39
2023-04-01T07:48:54.175Z,62.56
2023-04-01T07:49:54.138Z,61.43
2023-04-01T07:50:54.138Z,58.77
2023-04-01T07:51:54.120Z,60.70
2023-04-01T07:52:54.121Z,62.84
2023-04-01T07:53:54.124Z,59.83
2023-04-01T07:54:54.079Z,62.82
2023-04-01T07:55:54.096Z,57.98
2023-04-01T07:56:54.110Z,58.35
2023-04-01T07:57:54.048Z,61.87
2023-04-01T07:58:54.034Z,60.75
2023-04-01T07:59:55.045Z,57.76
2023-04-01T08:00:54.029Z,58.07
2023-04-01T08:01:54.004Z,59.63
2023-04-01T08:02:54.055Z,58.75
2023-04-01T08:03:54.192Z,60.56
2023-04-01T08:04:54.032Z,61.18
2023-04-01T08:05:53.992Z,59.84
2023-04-01T08:06:53.958Z,59.49
2023-04-01T08:07:53.957Z,58.62
2023-04-01T08:08:53.964Z,59.82
2023-04-01T08:09:53.919Z,63.89
2023-04-01T08:10:53.923Z,57.55
2023-04-01T08:11:53.898Z,59.89
2023-04-01T08:12:53.895Z,58.52
2023-04-01T08:13:53.867Z,58.44
2023-04-01T08:14:53.904Z,62.03
2023-04-01T08:15:53.848Z,58.98
2023-04-01T08:16:54.664Z,58.03
2023-04-01T08:17:54.876Z,62.93
2023-04-01T08:18:53.818Z,59.07
2023-04-01T08:19:53.812Z,59.35
2023-04-01T08:20:53.792Z,61.56
2023-04-01T08:21:53.815Z,60.51
2023-04-01T08:22:53.769Z,59.09
2023-04-01T08:23:53.753Z,59.60
2023-04-01T08:24:53.768Z,59.92
2023-04-01T08:25:53.751Z,59.76
2023-04-01T08:26:53.766Z,60.72
2023-04-01T08:27:53.723Z,60.88
2023-04-01T08:28:53.695Z,59.66
2023-04-01T08:29:53.683Z,57.05
2023-04-01T08:30:53.682Z,63.99
2023-04-01T08:31:53.715Z,60.13
2023-04-01T08:32:53.751Z,62.83
2023-04-01T08:33:53.655Z,60.93
2023-04-01T08:34:53.629Z,62.50
2023-04-01T08:35:53.623Z,60.78
2023-04-01T08:36:53.641Z,58.79
2023-04-01T08:37:53.587Z,59.82
2023-04-01T08:38:53.602Z,62.32
2023-04-01T08:39:53.588Z,61.18
2023-04-01T08:40:53.562Z,59.69
2023-04-01T08:41:53.554Z,60.12
2023-04-01T08:42:53.550Z,61.67
2023-04-01T08:43:53.596Z,63.04
2023-04-01T08:44:53.527Z,62.02
2023-04-01T08:45:53.548Z,59.78
2023-04-01T08:46:53.509Z,58.88
2023-04-01T08:47:53.499Z,57.94
2023-04-01T08:48:53.469Z,58.53
2023-04-01T08:49:53.450Z,61.63
2023-04-01T08:50:53.480Z,61.46
2023-04-01T08:51:53.437Z,61.14
2023-04-01T08:52:53.441Z,61.62
2023-04-01T08:53:53.428Z,59.88
2023-04-01T08:54:53.399Z,60.40
2023-04-01T08:55:53.392Z,60.11
2023-04-01T08:56:53.400Z,60.31
2023-04-01T08:57:54.647Z,58.94
2023-04-01T08:58:53.380Z,60.36
2023-04-01T08:59:53.334Z,59.17
2023-04-01T09:00:53.362Z,59.67
2023-04-01T09:01:53.409Z,62.04
2023-04-01T09:02:53.374Z,56.15
2023-04-01T09:03:53.437Z,58.45
2023-04-01T09:04:53.303Z,56.66
2023-04-01T09:05:53.273Z,58.70
2023-04-01T09:06:53.263Z,59.91
2023-04-01T09:07:53.278Z,58.50
2023-04-01T09:08:53.249Z,59.65
2023-04-01T09:09:53.233Z,58.01
2023-04-01T09:10:53.291Z,60.91
2023-04-01T09:11:53.309Z,60.35
2023-04-01T09:12:54.190Z,57.77
2023-04-01T09:13:53.191Z,59.63
2023-04-01T09:14:53.177Z,60.05
2023-04-01T09:15:53.204Z,61.23
2023-04-01T09:16:53.155Z,56.06
2023-04-01T09:17:53.288Z,59.04
2023-04-01T09:18:53.138Z,60.96
2023-04-01T09:19:53.158Z,59.34
2023-04-01T09:20:53.125Z,59.61
2023-04-01T09:21:53.104Z,59.68
2023-04-01T09:22:53.109Z,57.07
2023-04-01T09:23:53.089Z,56.44
2023-04-01T09:24:53.093Z,56.75
2023-04-01T09:25:53.075Z,55.18
2023-04-01T09:26:53.064Z,59.34
2023-04-01T09:28:25.093Z,60.33
2023-04-01T09:28:53.060Z,61.36
2023-04-01T09:29:53.041Z,60.15
2023-04-01T09:30:52.998Z,60.54
2023-04-01T09:31:53.087Z,57.92
2023-04-01T09:32:53.034Z,59.19
2023-04-01T09:33:52.958Z,59.61
2023-04-01T09:34:54.280Z,58.32
2023-04-01T09:35:52.990Z,57.89
2023-04-01T09:36:52.937Z,59.94
2023-04-01T09:37:52.932Z,58.21
2023-04-01T09:38:52.932Z,59.53
2023-04-01T09:39:52.926Z,58.41
2023-04-01T09:40:52.896Z,56.64
2023-04-01T09:41:52.894Z,56.71
2023-04-01T09:42:52.868Z,58.78
2023-04-01T09:43:52.862Z,59.02
2023-04-01T09:44:52.886Z,58.58
2023-04-01T09:45:52.898Z,59.26
2023-04-01T09:46:52.838Z,62.31
2023-04-01T09:47:52.909Z,60.49
2023-04-01T09:48:52.839Z,60.03
2023-04-01T09:49:52.860Z,57.82
2023-04-01T09:50:52.811Z,60.37
2023-04-01T09:51:52.799Z,60.13
2023-04-01T09:52:52.756Z,59.35
2023-04-01T09:53:52.756Z,60.71
2023-04-01T09:54:52.765Z,60.12
2023-04-01T09:55:52.760Z,57.35
2023-04-01T09:56:52.789Z,59.56
2023-04-01T09:57:52.713Z,60.79
2023-04-01T09:58:52.720Z,58.58
2023-04-01T09:59:52.719Z,56.64
2023-04-01T10:00:52.654Z,60.60
2023-04-01T10:01:52.771Z,62.17
2023-04-01T10:02:52.725Z,59.67
2023-04-01T10:03:52.642Z,58.75
2023-04-01T10:04:53.613Z,59.84
2023-04-01T10:05:53.679Z,59.24
2023-04-01T10:06:52.583Z,60.71
2023-04-01T10:07:52.600Z,59.88
2023-04-01T10:08:52.628Z,56.95
2023-04-01T10:09:52.578Z,59.84
2023-04-01T10:10:52.620Z,60.62
2023-04-01T10:11:52.535Z,60.44
2023-04-01T10:12:52.563Z,58.81
2023-04-01T10:13:52.519Z,61.89
2023-04-01T10:14:52.534Z,59.67
2023-04-01T10:15:52.539Z,58.07
2023-04-01T10:16:54.331Z,59.71
2023-04-01T10:17:53.533Z,60.25
2023-04-01T10:18:52.478Z,61.19
2023-04-01T10:19:52.493Z,59.30
2023-04-01T10:20:52.434Z,60.64
2023-04-01T10:21:52.441Z,58.09
2023-04-01T10:22:52.413Z,58.44
2023-04-01T10:23:52.411Z,57.73
2023-04-01T10:24:52.424Z,60.61
2023-04-01T10:25:52.391Z,59.23
2023-04-01T10:26:52.357Z,60.84
2023-04-01T10:27:52.361Z,58.18
2023-04-01T10:28:52.399Z,60.73
2023-04-01T10:29:52.336Z,60.18
2023-04-01T10:30:52.336Z,59.69
2023-04-01T10:31:52.427Z,59.40
2023-04-01T10:32:52.382Z,59.05
2023-04-01T10:33:52.306Z,59.28
2023-04-01T10:34:52.263Z,58.80
2023-04-01T10:35:52.299Z,59.74
2023-04-01T10:36:52.281Z,59.01
2023-04-01T10:37:52.240Z,57.59
2023-04-01T10:38:52.248Z,57.05
2023-04-01T10:39:52.216Z,61.39
2023-04-01T10:40:52.189Z,56.83
2023-04-01T10:41:52.248Z,58.33
2023-04-01T10:42:52.197Z,57.76
2023-04-01T10:43:52.190Z,57.17
2023-04-01T10:44:52.197Z,56.85
2023-04-01T10:45:52.235Z,58.97
2023-04-01T10:46:52.132Z,59.30
2023-04-01T10:47:52.172Z,54.75
2023-04-01T10:48:52.171Z,58.34
2023-04-01T10:49:52.118Z,59.54
2023-04-01T10:50:52.111Z,56.71
2023-04-01T10:51:52.110Z,58.69
2023-04-01T10:52:52.120Z,57.46
2023-04-01T10:53:52.052Z,59.61
2023-04-01T10:54:52.078Z,60.30
2023-04-01T10:55:52.075Z,59.66
2023-04-01T10:56:52.058Z,60.54
2023-04-01T10:57:52.030Z,59.41
2023-04-01T10:58:52.032Z,57.58
2023-04-01T10:59:52.006Z,56.90
2023-04-01T11:00:52.062Z,57.55
2023-04-01T11:02:04.087Z,57.75
2023-04-01T11:02:54.112Z,60.07
2023-04-01T11:03:52.134Z,57.05
2023-04-01T11:04:51.941Z,59.78
2023-04-01T11:05:52.004Z,59.34
2023-04-01T11:06:51.952Z,58.53
2023-04-01T11:08:03.147Z,59.23
2023-04-01T11:08:53.940Z,56.56
2023-04-01T11:09:51.917Z,59.74
2023-04-01T11:10:51.905Z,58.01
2023-04-01T11:11:51.885Z,56.10
2023-04-01T11:12:51.897Z,57.89
2023-04-01T11:13:51.862Z,58.48
2023-04-01T11:14:51.824Z,59.75
2023-04-01T11:15:51.863Z,57.98
2023-04-01T11:16:51.847Z,59.39
2023-04-01T11:17:51.891Z,60.46
2023-04-01T11:18:51.821Z,59.21
2023-04-01T11:19:51.807Z,60.56
2023-04-01T11:20:51.777Z,58.17
2023-04-01T11:21:51.782Z,59.27
2023-04-01T11:22:51.802Z,62.09
2023-04-01T11:24:03.998Z,62.09
2023-04-01T11:24:53.722Z,57.94
2023-04-01T11:25:51.758Z,56.96
2023-04-01T11:26:51.806Z,59.98
2023-04-01T11:27:51.723Z,60.42
2023-04-01T11:28:51.723Z,56.44
2023-04-01T11:29:59.638Z,61.99
2023-04-01T11:30:53.666Z,62.65
2023-04-01T11:31:51.735Z,60.12
2023-04-01T11:32:51.715Z,59.46
2023-04-01T11:33:51.642Z,62.92
2023-04-01T11:34:51.618Z,61.76
2023-04-01T11:35:51.620Z,62.35
2023-04-01T11:36:51.657Z,62.24
2023-04-01T11:37:51.596Z,60.71
2023-04-01T11:38:51.564Z,62.28
2023-04-01T11:39:51.574Z,60.63
2023-04-01T11:40:51.585Z,62.09
2023-04-01T11:41:51.548Z,59.69
2023-04-01T11:42:51.551Z,63.04
2023-04-01T11:43:51.525Z,62.29
2023-04-01T11:44:51.501Z,61.60
2023-04-01T11:45:51.562Z,60.46
2023-04-01T11:46:51.522Z,59.78
2023-04-01T11:47:51.537Z,62.46
2023-04-01T11:48:51.454Z,60.75
2023-04-01T11:49:51.485Z,62.54
2023-04-01T11:50:51.417Z,63.37
2023-04-01T11:51:51.429Z,61.88
2023-04-01T11:52:51.456Z,63.02
2023-04-01T11:53:51.435Z,61.12
2023-04-01T11:54:51.398Z,61.47
2023-04-01T11:55:51.397Z,60.48
2023-04-01T11:56:51.433Z,61.28
2023-04-01T11:57:51.352Z,61.21
2023-04-01T11:58:51.389Z,60.32
2023-04-01T11:59:51.348Z,59.94
2023-04-01T12:00:51.305Z,61.30
2023-04-01T12:01:51.322Z,60.34
2023-04-01T12:02:51.379Z,61.93
2023-04-01T12:03:51.381Z,59.27
2023-04-01T12:04:51.324Z,61.22
2023-04-01T12:05:51.266Z,62.35
2023-04-01T12:06:51.280Z,60.56
2023-04-01T12:07:51.265Z,61.63
2023-04-01T12:08:51.238Z,61.09
2023-04-01T12:09:51.239Z,60.97
2023-04-01T12:10:51.233Z,59.70
2023-04-01T12:11:51.213Z,60.15
2023-04-01T12:13:00.825Z,61.69
2023-04-01T12:13:53.227Z,63.03
2023-04-01T12:14:51.225Z,62.49
2023-04-01T12:15:51.163Z,62.71
2023-04-01T12:16:51.183Z,57.39
2023-04-01T12:17:51.177Z,61.97
2023-04-01T12:18:51.112Z,62.27
2023-04-01T12:19:51.121Z,62.02
2023-04-01T12:20:51.132Z,59.87
2023-04-01T12:21:51.095Z,60.32
2023-04-01T12:22:51.093Z,57.10
2023-04-01T12:23:51.095Z,58.21
2023-04-01T12:24:51.035Z,61.82
2023-04-01T12:25:51.050Z,60.24
2023-04-01T12:26:51.067Z,60.02
2023-04-01T12:27:52.121Z,59.98
2023-04-01T12:28:51.999Z,61.60
2023-04-01T12:29:51.031Z,62.31
2023-04-01T12:30:50.988Z,61.20
2023-04-01T12:31:51.021Z,59.80
2023-04-01T12:32:51.046Z,62.37
2023-04-01T12:33:50.965Z,61.52
2023-04-01T12:34:50.940Z,62.47
2023-04-01T12:35:50.989Z,63.05
2023-04-01T12:36:51.473Z,60.25
2023-04-01T12:37:51.931Z,59.62
2023-04-01T12:38:50.894Z,59.10
2023-04-01T12:39:50.950Z,57.24
2023-04-01T12:40:50.900Z,60.34
2023-04-01T12:41:50.870Z,58.23
2023-04-01T12:42:51.846Z,58.42
2023-04-01T12:43:50.876Z,58.61
2023-04-01T12:44:50.865Z,59.11
2023-04-01T12:45:50.872Z,59.40
2023-04-01T12:46:50.837Z,58.08
2023-04-01T12:47:50.913Z,59.24
2023-04-01T12:48:51.960Z,62.05
2023-04-01T12:49:50.783Z,58.40
2023-04-01T12:50:50.790Z,59.04
2023-04-01T12:51:50.756Z,58.26
2023-04-01T12:52:50.741Z,57.50